Bookmark and Share
Track history (hours):
 

Pieter Caland

Last reported at 2014-Apr-17 00:33 UTC. Time now 2014-Apr-17 00:54 UTC.
Position S 12°30' E 130°49'.

Length 96 m; draft 3 m.

Type: Ship. MMSI: 244992000.

NotesDate/timePositionNaut miles runAvg speedWind from/ knotsBaromVisibWave heightAir tempDewpointWater temp
2014-Apr-17 00:33S 12°30' E 130°49'1 0.9
2014-Apr-16 23:33S 12°29' E 130°50'2 2.3
2014-Apr-16 22:33S 12°28' E 130°48'1110.6
2014-Apr-16 21:33S 12°17' E 130°48'3 3.1
2014-Apr-16 20:33S 12°20' E 130°47'8 8.2
2014-Apr-16 19:33S 12°28' E 130°49'3 3.0
2014-Apr-16 18:33S 12°31' E 130°50'0 0.0
2014-Apr-16 17:33S 12°31' E 130°50'0 0.0
2014-Apr-16 16:33S 12°31' E 130°50'0 0.0
2014-Apr-16 15:33S 12°31' E 130°50'0 0.0
2014-Apr-16 14:33S 12°31' E 130°50'0 0.0
2014-Apr-16 13:33S 12°31' E 130°50'0 0.0
2014-Apr-16 12:33S 12°31' E 130°50'0 0.0
2014-Apr-16 11:33S 12°31' E 130°50'1 1.4
2014-Apr-16 10:33S 12°30' E 130°50'0 0.1
2014-Apr-16 09:33S 12°30' E 130°50'0 0.0
2014-Apr-16 08:33S 12°30' E 130°50'0 0.0
2014-Apr-16 07:33S 12°30' E 130°50'0 0.0
2014-Apr-16 06:33S 12°30' E 130°50'0 0.1
2014-Apr-16 05:33S 12°30' E 130°50'0 0.1
2014-Apr-16 04:33S 12°30' E 130°50'0 0.1
2014-Apr-16 03:33S 12°29' E 130°50'3 3.0
2014-Apr-16 02:33S 12°27' E 130°48'1010.3
2014-Apr-16 01:33S 12°17' E 130°48'4 4.1
2014-Apr-16 00:33S 12°21' E 130°47'9 8.5
2014-Apr-15 23:33S 12°29' E 130°49'0 0.0
2014-Apr-15 22:24S 12°29' E 130°49'0 0.0
2014-Apr-15 21:27S 12°29' E 130°49'0 0.0
2014-Apr-15 20:27S 12°29' E 130°49'0 0.0
2014-Apr-15 19:33S 12°29' E 130°49'0 0.0
2014-Apr-15 18:30S 12°29' E 130°49'0 0.0
2014-Apr-15 17:33S 12°29' E 130°49'0 0.0
2014-Apr-15 16:33S 12°29' E 130°49'0 0.0
2014-Apr-15 15:33S 12°29' E 130°49'0 0.0
2014-Apr-15 14:33S 12°29' E 130°49'0 0.0
2014-Apr-15 12:33S 12°29' E 130°49'0 0.0
2014-Apr-15 11:33S 12°29' E 130°49'0 0.0
2014-Apr-15 10:33S 12°29' E 130°49'0 0.0
2014-Apr-15 09:33S 12°29' E 130°49'0 0.0
2014-Apr-15 08:33S 12°29' E 130°49'0 0.0
2014-Apr-15 07:30S 12°29' E 130°49'0 0.0
2014-Apr-15 06:33S 12°29' E 130°49'0 0.0
2014-Apr-15 03:33S 12°29' E 130°49'0 0.0
2014-Apr-15 02:33S 12°29' E 130°49'0 0.0
2014-Apr-15 01:33S 12°29' E 130°49'0 0.0
2014-Apr-15 00:33S 12°29' E 130°49'0 0.0
2014-Apr-14 23:33S 12°29' E 130°49'1 1.0
2014-Apr-14 22:31S 12°29' E 130°50'0 0.0
2014-Apr-14 21:31S 12°29' E 130°50'0 0.1
2014-Apr-14 20:31S 12°29' E 130°50'0 0.1
2014-Apr-14 19:31S 12°29' E 130°50'0 0.0
2014-Apr-14 18:31S 12°29' E 130°50'8 8.8
2014-Apr-14 17:34S 12°21' E 130°47'6 6.3
2014-Apr-14 16:34S 12°15' E 130°49'1010.0
2014-Apr-14 15:34S 12°24' E 130°46'7 6.6
2014-Apr-14 14:33S 12°30' E 130°49'0 0.0
2014-Apr-14 13:33S 12°30' E 130°49'0 0.0
2014-Apr-14 11:33S 12°30' E 130°49'0 0.0
2014-Apr-14 10:33S 12°30' E 130°49'0 0.0
2014-Apr-14 09:29S 12°30' E 130°49'1 1.0
2014-Apr-14 08:31S 12°30' E 130°50'0 0.1
2014-Apr-14 07:31S 12°30' E 130°50'0 0.0
2014-Apr-14 05:31S 12°30' E 130°50'0 0.0
2014-Apr-13 22:31S 12°29' E 130°50'0 0.0
2014-Apr-13 21:31S 12°29' E 130°50'5 5.2
2014-Apr-13 20:33S 12°25' E 130°47'1010.2
2014-Apr-13 19:33S 12°15' E 130°49'3 3.0
2014-Apr-13 18:33S 12°18' E 130°48'9 8.8
2014-Apr-13 17:34S 12°27' E 130°48'3 3.2
2014-Apr-13 16:29S 12°30' E 130°49'0 0.0
2014-Apr-13 15:32S 12°30' E 130°49'0 0.0
2014-Apr-13 14:32S 12°30' E 130°49'0 0.0
2014-Apr-13 13:32S 12°30' E 130°49'0 0.0
2014-Apr-13 12:32S 12°30' E 130°49'0 0.1
2014-Apr-13 11:32S 12°30' E 130°49'0 0.0
2014-Apr-13 10:32S 12°30' E 130°49'1 0.7
2014-Apr-13 09:22S 12°30' E 130°50'0 0.1
2014-Apr-13 08:31S 12°30' E 130°50'0 0.1
2014-Apr-13 07:31S 12°30' E 130°50'0 0.0
2014-Apr-13 06:31S 12°30' E 130°50'0 0.0
2014-Apr-13 05:31S 12°30' E 130°50'0 0.0
2014-Apr-13 04:31S 12°30' E 130°50'0 0.0
2014-Apr-13 03:31S 12°30' E 130°50'0 0.1
2014-Apr-13 02:31S 12°29' E 130°50'0 0.0
2014-Apr-13 01:31S 12°29' E 130°50'0 0.1
2014-Apr-13 00:31S 12°30' E 130°50'0 0.0
2014-Apr-12 23:31S 12°30' E 130°50'0 0.0
2014-Apr-12 22:31S 12°30' E 130°50'0 0.1
2014-Apr-12 21:31S 12°30' E 130°50'6 6.0
2014-Apr-12 20:33S 12°25' E 130°46'1110.8
2014-Apr-12 19:33S 12°15' E 130°49'5 4.7
2014-Apr-12 18:33S 12°19' E 130°47'9 8.7
2014-Apr-12 17:33S 12°28' E 130°49'2 2.4
2014-Apr-12 16:33S 12°30' E 130°49'0 0.0
2014-Apr-12 15:33S 12°30' E 130°49'0 0.0
2014-Apr-12 14:33S 12°30' E 130°49'0 0.0
2014-Apr-12 13:33S 12°30' E 130°49'0 0.0
2014-Apr-12 12:30S 12°30' E 130°49'0 0.0
2014-Apr-12 11:33S 12°30' E 130°49'0 0.3
2014-Apr-12 10:33S 12°30' E 130°49'1 0.6
2014-Apr-12 09:33S 12°30' E 130°49'0 0.0
2014-Apr-12 08:33S 12°30' E 130°49'0 0.0
2014-Apr-12 07:33S 12°30' E 130°49'0 0.0
2014-Apr-12 06:33S 12°30' E 130°49'1 0.5
2014-Apr-12 05:33S 12°30' E 130°50'0 0.4
2014-Apr-12 04:32S 12°30' E 130°50'0 0.0
2014-Apr-12 03:29S 12°30' E 130°50'0 0.1
2014-Apr-12 02:29S 12°30' E 130°50'0 0.0
2014-Apr-12 01:32S 12°29' E 130°50'0 0.0
2014-Apr-12 00:32S 12°29' E 130°50'0 0.0
2014-Apr-11 23:33S 12°29' E 130°50'0 0.0
2014-Apr-11 22:32S 12°29' E 130°50'8 8.0
2014-Apr-11 21:33S 12°22' E 130°47'8 8.3
2014-Apr-11 20:33S 12°14' E 130°49'1010.2
2014-Apr-11 19:33S 12°24' E 130°46'7 6.6
2014-Apr-11 18:32S 12°30' E 130°49'0 0.0
2014-Apr-11 17:29S 12°30' E 130°49'0 0.0
2014-Apr-11 16:25S 12°30' E 130°49'0 0.0
2014-Apr-11 15:31S 12°30' E 130°49'0 0.0
2014-Apr-11 14:32S 12°30' E 130°49'0 0.0
2014-Apr-11 13:32S 12°30' E 130°49'0 0.0
2014-Apr-11 12:32S 12°30' E 130°49'0 0.0
2014-Apr-11 11:31S 12°30' E 130°49'0 0.0
2014-Apr-11 10:33S 12°30' E 130°49'0 0.2
2014-Apr-11 09:33S 12°30' E 130°49'0 0.0
2014-Apr-11 08:33S 12°30' E 130°49'0 0.0
2014-Apr-11 07:33S 12°30' E 130°49'0 0.0
2014-Apr-11 06:33S 12°30' E 130°49'6 6.0
2014-Apr-11 05:34S 12°25' E 130°46'1110.8
2014-Apr-11 04:34S 12°14' E 130°49'9 8.6
2014-Apr-11 03:33S 12°23' E 130°47'8 7.9
2014-Apr-11 02:33S 12°30' E 130°49'0 0.0
2014-Apr-11 01:33S 12°30' E 130°49'0 0.0
2014-Apr-11 00:33S 12°30' E 130°49'0 0.0
2014-Apr-10 23:33S 12°30' E 130°49'0 0.0
2014-Apr-10 22:33S 12°30' E 130°49'0 0.0
2014-Apr-10 21:33S 12°30' E 130°49'0 0.0
2014-Apr-10 20:33S 12°30' E 130°49'0 0.0
2014-Apr-10 19:33S 12°30' E 130°49'0 0.1
2014-Apr-10 18:33S 12°30' E 130°49'1 1.1
2014-Apr-10 17:33S 12°29' E 130°49'0 0.1
2014-Apr-10 16:32S 12°29' E 130°49'0 0.0
2014-Apr-10 15:32S 12°29' E 130°49'6 5.9
2014-Apr-10 14:33S 12°24' E 130°46'11 9.2
2014-Apr-10 13:25S 12°14' E 130°49'7 8.1
2014-Apr-10 12:33S 12°21' E 130°47'8 8.0
2014-Apr-10 11:33S 12°29' E 130°49'0 0.0
2014-Apr-10 10:33S 12°29' E 130°49'0 0.0
2014-Apr-10 09:33S 12°29' E 130°49'0 0.0
2014-Apr-10 08:33S 12°29' E 130°49'0 0.0
2014-Apr-10 07:33S 12°29' E 130°49'0 0.0
2014-Apr-10 06:33S 12°29' E 130°49'0 0.0
2014-Apr-10 05:33S 12°29' E 130°49'0 0.0
2014-Apr-10 04:33S 12°29' E 130°49'0 0.0
2014-Apr-10 03:33S 12°29' E 130°49'0 0.0
2014-Apr-10 02:33S 12°29' E 130°49'0 0.0
2014-Apr-10 01:27S 12°29' E 130°49'0 0.0
2014-Apr-10 00:27S 12°29' E 130°49'1 1.3
2014-Apr-09 23:30S 12°29' E 130°50'0 0.0
2014-Apr-09 22:33S 12°30' E 130°50'7 7.2
2014-Apr-09 21:33S 12°23' E 130°46'10 9.5
2014-Apr-09 20:33S 12°14' E 130°49'10 9.9
2014-Apr-09 19:33S 12°24' E 130°46'6 5.6
2014-Apr-09 18:32S 12°29' E 130°49'0 0.0
2014-Apr-09 17:33S 12°29' E 130°49'0 0.0
2014-Apr-09 16:29S 12°29' E 130°49'0 0.0
2014-Apr-09 15:26S 12°29' E 130°49'0 0.0
2014-Apr-09 14:29S 12°29' E 130°49'0 0.0
2014-Apr-09 13:26S 12°29' E 130°49'1 0.7
2014-Apr-09 12:33S 12°28' E 130°49'0 0.3
2014-Apr-09 11:31S 12°28' E 130°48'0 0.0
2014-Apr-09 10:31S 12°28' E 130°48'0 0.0
2014-Apr-09 09:31S 12°28' E 130°48'4 4.2
2014-Apr-09 08:34S 12°25' E 130°46'1110.9
2014-Apr-09 07:33S 12°14' E 130°49'8 8.2
2014-Apr-09 06:33S 12°22' E 130°47'7 6.1
2014-Apr-09 05:28S 12°29' E 130°48'0 0.0
2014-Apr-09 04:29S 12°29' E 130°48'0 0.0
2014-Apr-09 03:31S 12°29' E 130°48'0 0.0
2014-Apr-09 02:31S 12°29' E 130°48'0 0.0
2014-Apr-09 01:25S 12°29' E 130°48'0 0.0
2014-Apr-09 00:31S 12°29' E 130°48'0 0.0
2014-Apr-08 23:31S 12°29' E 130°48'0 0.0
2014-Apr-08 22:25S 12°29' E 130°48'0 0.0
2014-Apr-08 21:31S 12°29' E 130°48'0 0.0
2014-Apr-08 20:31S 12°29' E 130°48'0 0.0
2014-Apr-08 19:31S 12°29' E 130°48'0 0.0
2014-Apr-08 18:31S 12°29' E 130°48'0 0.0
2014-Apr-08 17:31S 12°29' E 130°48'0 0.0
2014-Apr-08 16:31S 12°29' E 130°48'0 0.0
2014-Apr-08 15:31S 12°29' E 130°48'0 0.0
2014-Apr-08 14:31S 12°29' E 130°48'0 0.0
2014-Apr-08 13:31S 12°29' E 130°48'0 0.0
2014-Apr-08 12:31S 12°29' E 130°48'0 0.0
2014-Apr-08 11:28S 12°29' E 130°48'0 0.0
2014-Apr-08 10:25S 12°29' E 130°48'0 0.0
2014-Apr-08 09:31S 12°29' E 130°48'0 0.1
2014-Apr-08 08:28S 12°29' E 130°48'0 0.1
2014-Apr-08 07:31S 12°29' E 130°48'0 0.0
2014-Apr-08 06:28S 12°29' E 130°48'0 0.0
2014-Apr-08 05:31S 12°29' E 130°48'0 0.1
2014-Apr-08 04:31S 12°29' E 130°48'0 0.0
2014-Apr-08 03:31S 12°29' E 130°48'0 0.0
2014-Apr-08 02:31S 12°29' E 130°48'0 0.0
2014-Apr-08 01:31S 12°29' E 130°48'0 0.0
2014-Apr-08 00:31S 12°29' E 130°48'0 0.0
2014-Apr-07 23:31S 12°29' E 130°48'0 0.0
2014-Apr-07 22:25S 12°29' E 130°48'0 0.0
2014-Apr-07 21:31S 12°29' E 130°48'0 0.1
2014-Apr-07 20:28S 12°29' E 130°48'0 0.1
2014-Apr-07 19:31S 12°29' E 130°48'0 0.0
2014-Apr-07 17:31S 12°29' E 130°48'0 0.0
2014-Apr-07 16:31S 12°29' E 130°48'0 0.0
2014-Apr-07 15:31S 12°29' E 130°48'0 0.1
2014-Apr-07 14:31S 12°29' E 130°48'0 0.1
2014-Apr-07 13:31S 12°29' E 130°48'0 0.0
2014-Apr-07 12:31S 12°29' E 130°48'0 0.1
2014-Apr-07 11:31S 12°29' E 130°48'0 0.0
2014-Apr-07 10:31S 12°29' E 130°48'0 0.0
2014-Apr-07 09:28S 12°29' E 130°48'0 0.0
2014-Apr-07 08:25S 12°29' E 130°48'0 0.0
2014-Apr-07 07:28S 12°29' E 130°48'0 0.0
2014-Apr-07 06:25S 12°29' E 130°48'0 0.0
2014-Apr-07 05:31S 12°29' E 130°48'0 0.0
2014-Apr-07 04:31S 12°29' E 130°48'1 0.8
2014-Apr-07 03:33S 12°29' E 130°49'1 0.9
2014-Apr-07 02:34S 12°29' E 130°50'0 0.0
2014-Apr-07 01:28S 12°29' E 130°50'  

Dump ship's entire track history

sailing weather and tide predictions

Pieter Caland — PBTB — position and weather